Hawkins, TX

10:45 PM CST on March 01, 2015 (GMT -0600)
Fouke | Change Station
CLOSE
Current Station
Personal Weather Station
Location: Hawkins, TX
Elevation: 374 ft
Nearby Weather Stations

Elev 374 ft 32.61 °N, 95.27 °W | Updated 14 minutes ago

Overcast
Overcast
41.5 °F
Feels Like 42 °F
N
2.2
Wind Variable Wind from NNE

Today
High -- | Low -- °F
--% Chance of Precip.
Yesterday
High -- | Low -- °F
Precip. -- in
6:48 AM 6:18 PM
Waxing Gibbous, 89% visible
Pressure 30.35 in
Visibility 5.0 miles
Clouds Overcast 300 ft
Windchill 42 °F
Dew Point 41 °F
Humidity 97%
Rainfall 0.43 in
Snow Depth Not available.
UV 0 out of 12
Pollen 4.90 out of 12
Air Quality Not available.
Flu Activity Not available.
METAR KJXI 020435Z AUTO 36004KT 5SM BR OVC003 06/05 A3035 RMK AO2 T00550052

More Conditions Fewer Conditions

Pressure 30.35 in
Visibility 5.0 miles
Clouds Overcast 300 ft
Windchill 42 °F
Dew Point 41 °F
Humidity 97%
Rainfall 0.43 in
Snow Depth Not available.
UV 0 out of 12
Pollen 4.90 out of 12
Air Quality Not available.
Flu Activity Not available.
METAR KJXI 020435Z AUTO 36004KT 5SM BR OVC003 06/05 A3035 RMK AO2 T00550052

More Conditions Fewer Conditions

Nowcast | as of 9:34 PM CST on March 1, 2015

Scattered areas of light rain continue over The Heart of the four state area with area wide drizzle and fog that will persist overnight. A weak cold front is now stationary along I-10...but the cool air is very thin and warm moist southwest flow aloft will linger. Expect reduced visibilities of one to three miles common with the light precipitation and fog. Occasional dips below 1 mile visibility are possible in patchy dense fog towards midnight.

×

10-Day Weather Forecast

Almanac

Astronomy

Mar. 01, 2015 Rise Set
Actual Time
Civil Twilight
Nautical Twilight
Astronomical Twilight
Moon
Length of Visible Light
Length of Day
Tomorrow will be .
, % of the Moon is Illuminated

Today's Extremes

State Highs State Lows

Community

WunderPhotos

Upload Photos

1,801,725 photos uploaded!

WunderBlogs® & News

Nearby

Air Quality

  Air Quality AQ Index Pollutant
Not available.

Snow Depth

Station Depth Elevation

Earthquake Activity

City Distance Mag. Time & Date
Minimum magnitude displayed is 2.5.

Coastal Water Temperatures

Place Temperature

Nearby Weather Stations

Flood Warning
Statement as of 7:52 AM CST on March 01, 2015

... The Flood Warning extended until late tonight... the Flood Warning
continues for
the Sabine River near Mineola.
* Until late tonight... or until the warning is cancelled.
* At 7:15 am Sunday the stage was 14.2 feet.
* Minor flooding is occurring and nonflood flooding is forecast.
* Flood stage is 14.0 feet.
* Forecast... the river will continue to fall to below flood stage by
late this morning.
* Impact... at 14.0 feet... expect flooding of secondary roadways with
picnic and recreational areas flooded as well.


Lat... Lon 3278 9574 3263 9535 3257 9535 3259 9550 3273 9574